Weather observations for the past three days for
Shawano Municipal Airport
Metric (Imperial)
Date Time (cdt) Wind (kph) Vis. (km) Weather Sky Cond. Temperature (ºC) Relative Humidity Wind Chill (°C) Heat Index (°C) Pressure Precipitation (cm)
Air Dwpt 6 hour altimeter (cm) sea level (mb) 1 hr 3 hr 6 hr
Max. Min.
05 08:15 W 13 16.09 Fair CLR 8.4 -4.2 41% 7 75.51 0.0
05 07:55 W 9 16.09 Fair CLR 7.5 -4.5 43% 6 75.49 0.0
05 07:35 W 9 16.09 Fair CLR 7 -4.2 45% 5 75.46 0.0
05 07:15 W 7 16.09 Fair CLR 6.5 -3.9 48% 5 75.44 0.0
05 06:55 W 9 16.09 Fair CLR 6 -4.3 8.5 4.4 48% 4 75.44 0.0
05 06:35 SW 7 16.09 Fair CLR 5.2 -4.5 50% 4 75.44 0.0
05 06:15 SW 6 16.09 Fair CLR 4.8 -4.6 51% 75.44 0.0
05 05:55 SW 6 16.09 Fair CLR 4.6 -5 50% 75.41 0.0
05 05:35 SW 6 16.09 Fair CLR 4.5 -5 51% 75.41 0.0
05 05:15 Calm 16.09 Fair CLR 4.7 -5.1 49% 75.39 0.0
05 04:55 Calm 16.09 Fair CLR 4.8 -5.2 49% 75.39 0.0
05 04:35 Calm 16.09 Fair CLR 4.9 -5.1 49% 75.36 0.0
05 04:15 Calm 16.09 Fair CLR 5.7 -6 43% 75.34 0.0
05 03:55 Calm 16.09 Fair CLR 6 -6.3 41% 75.31 0.0
05 03:30 W 7 16.09 Fair CLR 6 -6.5 41% 5 75.29 0.0
05 03:15 W 6 16.09 Fair CLR 6.3 -6.7 39% 75.29 0.0
05 02:55 W 6 16.09 NULL NULL 6.5 -7.1 37% 75.29 0.0
05 02:35 W 6 16.09 NULL NULL 7 -7.5 35% 75.29 0.0
05 02:15 W 6 16.09 NULL NULL 7 -7.5 35% 75.29 0.0
05 01:55 W 6 16.09 NULL NULL 7.1 -7.6 35% 75.29 0.0
05 01:35 NW 13 16.09 NULL NULL 7.6 -8 32% 6 75.29 0.0
05 01:15 NW 22 G 28 16.09 NULL NULL 8 -8.1 31% 5 75.29 0.0
05 00:55 NW 22 G 33 16.09 NULL NULL 8.5 -7.8 18.5 8.5 31% 6 75.29 0.0
05 00:35 NW 15 G 37 16.09 Fair CLR 8.9 -6.8 33% 7 75.26 0.0
05 00:15 NW 19 G 31 16.09 Fair CLR 9.5 -5 36% 7 75.23 0.0
04 23:55 NW 13 G 33 16.09 Fair CLR 9.9 -4.7 36% 8 75.21 0.0
04 23:35 NW 22 16.09 Fair CLR 10.6 -4.7 34% 75.16 0.0
04 23:15 NW 26 G 37 16.09 Fair CLR 11.1 -4.9 32% 75.13 0.0
04 22:55 NW 20 G 31 16.09 Fair CLR 11.5 -4.2 33% 75.08 0.0
04 22:35 NW 24 G 41 16.09 Fair CLR 12.4 -4.2 31% 75.03 0.0
04 22:15 NW 17 G 30 16.09 Fair CLR 12.9 -4.3 30% 74.98 0.0
04 21:55 NW 15 16.09 NULL NULL 13.5 -4.5 29% 74.98 0.0
04 21:35 NW 20 G 37 16.09 NULL NULL 14.5 -5.6 25% 74.93 0.0
04 21:15 NW 19 G 37 16.09 NULL NULL 15 -5.4 24% 74.9 0.0
04 20:55 NW 26 G 44 16.09 Fair CLR 15.5 -5.2 24% 74.9 0.0
04 20:35 W 15 G 37 16.09 Fair CLR 16.2 -4.6 24% 74.83 0.0
04 20:15 NW 15 G 26 16.09 Fair CLR 16.7 -6.1 21% 74.83 0.0
04 19:55 W 24 G 39 16.09 Fair CLR 17.2 -8.6 16% 74.78 0.0
04 19:35 W 20 G 37 16.09 Fair CLR 17.6 -5.2 21% 74.75 0.0
04 19:15 W 19 G 31 16.09 Fair CLR 18.1 -4.3 22% 74.7 0.0
04 18:55 W 28 G 43 16.09 Fair CLR 18.6 -4.8 24.3 18.6 20% 74.68 0.0
04 18:35 W 28 G 41 16.09 Fair CLR 19.1 -5.8 18% 74.68 0.0
04 18:15 W 28 G 44 16.09 NULL NULL 19.6 -5.3 18% 74.68 0.0
04 17:55 W 22 G 46 16.09 NULL NULL 20.1 -5.5 17% 74.65 0.0
04 17:35 W 28 G 46 16.09 Mostly Cloudy BKN090 BKN120 20.2 -5.2 18% 74.65 0.0
04 17:15 W 19 G 28 16.09 Mostly Cloudy SCT036 SCT055 BKN090 20.5 -5.1 17% 74.65 0.0
04 16:55 W 22 G 39 16.09 Partly Cloudy SCT090 SCT110 20.6 -5.9 16% 74.65 0.0
04 16:35 W 33 G 48 16.09 Partly Cloudy and Breezy SCT110 21.6 -7.2 14% 74.63 0.0
04 16:15 W 30 G 52 16.09 Fair CLR 22 -6.4 14% 74.6 0.0
04 15:55 W 19 G 46 16.09 Fair CLR 22.2 -4.4 17% 74.6 0.0
04 15:35 W 35 G 46 16.09 Fair and Breezy CLR 22.5 -4.4 16% 74.57 0.0
04 15:15 SW 35 G 50 16.09 Fair and Breezy CLR 23.3 -5.6 14% 74.55 0.0
04 14:55 SW 31 G 52 16.09 Fair CLR 23.3 -2.2 18% 74.55 0.0
04 14:35 W 33 G 59 16.09 Fair and Breezy CLR 23.1 -1.8 19% 74.55 0.0
04 14:15 SW 35 G 61 16.09 Fair and Breezy CLR 23.4 -0.7 20% 74.52 0.0
04 13:55 W 28 G 56 16.09 Fair CLR 23.9 -0.2 20% 24 74.52 0.0
04 13:35 W 33 G 54 16.09 Partly Cloudy and Breezy SCT075 23.4 0.6 22% 74.52 0.0
04 13:15 W 33 G 57 16.09 Partly Cloudy and Breezy SCT075 24 1.1 22% 25 74.52 0.0
04 12:55 W 24 G 56 16.09 Partly Cloudy SCT075 23.4 1.4 23.6 11.3 24% 74.52 0.0
04 12:35 W 41 G 56 16.09 Fair and Breezy CLR 23.4 1 23% 74.52 0.0
04 12:15 W 33 G 63 16.09 Fair and Breezy CLR 23 0.4 22% 74.52 0.0
04 11:55 W 33 G 57 16.09 Fair and Breezy CLR 22.7 0.2 23% 74.55 0.0
04 11:35 W 26 G 52 16.09 Partly Cloudy SCT100 22.5 0 22% 74.55 0.0
04 11:15 W 28 G 56 16.09 NULL NULL 22.9 -0.4 21% 74.55 0.0
04 10:55 W 37 G 54 16.09 Breezy NULL 22.7 -0.6 21% 74.55 0.0
04 10:35 W 39 G 52 16.09 Breezy NULL 23 -1 20% 74.55 0.0
04 10:15 SW 33 G 43 16.09 Breezy NULL 22.7 -0.8 21% 74.55 0.0
04 09:55 SW 19 G 41 16.09 Mostly Cloudy BKN090 21.6 -0.6 23% 74.57 0.0
04 09:35 SW 20 G 33 16.09 Fair CLR 20.8 -0.4 24% 74.6 0.0
04 09:15 SW 28 G 35 16.09 Fair CLR 19.5 -0.7 26% 74.63 0.0
04 08:55 SW 22 G 31 16.09 Fair CLR 18.6 -0.4 28% 74.65 0.0
04 08:35 SW 20 G 33 16.09 Fair CLR 17.5 0.1 31% 74.7 0.0
04 08:15 SW 15 16.09 Fair CLR 15.9 0.2 35% 74.73 0.0
04 07:55 SW 13 16.09 Fair CLR 14.5 0.6 39% 74.75 0.0
04 07:35 SW 13 16.09 Fair CLR 13.5 0.5 41% 74.78 0.0
04 06:55 SW 7 16.09 Fair CLR 11.2 0.2 11.2 6.6 47% 74.8 0.0
04 06:35 SW 6 16.09 Fair CLR 10.1 0.1 50% 74.8 0.0
04 06:15 S 6 16.09 Fair CLR 9.5 0 52% 74.83 0.0
04 05:50 Calm 16.09 Fair CLR 9 0 54% 74.88 0.0
04 05:35 Calm 16.09 Fair CLR 8.7 0 55% 74.9 0.0
04 05:15 Calm 16.09 Fair CLR 8.9 0.3 55% 74.93 0.0
04 04:55 Calm 16.09 Fair CLR 9.1 0.4 55% 74.93 0.0
04 04:35 S 6 16.09 Fair CLR 9.4 0.4 54% 74.96 0.0
04 04:15 Calm 16.09 Fair CLR 9 1 58% 74.98 0.0
04 03:55 Calm 16.09 Fair CLR 8.6 2 64% 75.01 0.0
04 03:35 Calm 16.09 Fair CLR 9.7 2.5 61% 75.03 0.0
04 03:15 S 6 16.09 Fair CLR 9.9 2.9 62% 75.03 0.0
04 02:55 Calm 16.09 Fair CLR 9 3.3 68% 75.06 0.0
04 02:35 Calm 16.09 Fair CLR 7.6 3.4 75% 75.08 0.0
04 02:15 Calm 16.09 Fair CLR 7.6 3 73% 75.08 0.0
04 01:55 Calm 16.09 Fair CLR 7.6 2.8 72% 75.11 0.0
04 01:35 Calm 16.09 Fair CLR 6.9 2.3 73% 75.13 0.0
04 01:15 Calm 16.09 Fair CLR 8.1 2.9 70% 75.16 0.0
04 00:55 Calm 16.09 Fair CLR 7.3 2.8 73% 75.18 0.0
04 00:35 Calm 16.09 Partly Cloudy SCT002 9 3.3 68% 75.21 0.0
04 00:15 Calm 16.09 NULL NULL 9.2 3.8 69% 75.21 0.0
03 23:55 Calm 16.09 NULL NULL 9.9 3.4 64% 75.21 0.0
03 23:35 Calm 16.09 NULL NULL 11.2 3 57% 75.23 0.0
03 23:15 E 6 16.09 NULL NULL 10.9 2.5 56% 75.23 0.0
03 22:55 Calm 16.09 NULL NULL 11.4 3.2 57% 75.21 0.0
03 22:35 N 7 16.09 NULL NULL 12.9 4.9 59% 75.21 0.0
03 22:15 W 6 16.09 NULL NULL 15.4 0.8 37% 75.21 0.0
03 21:15 W 7 16.09 NULL NULL 17.3 0.3 32% 75.18 0.0
03 20:55 SW 7 16.09 NULL NULL 17.7 0.4 31% 75.16 0.0
03 20:35 SW 9 16.09 Partly Cloudy SCT100 18.5 0.3 30% 75.16 0.0
03 20:15 SW 9 16.09 Partly Cloudy SCT100 18.8 0.4 29% 75.16 0.0
03 19:55 SW 11 16.09 Partly Cloudy SCT100 19.4 0.1 27% 75.13 0.0
03 19:35 W 15 16.09 Fair CLR 20.3 -0.6 25% 75.11 0.0
03 19:15 W 15 16.09 Fair CLR 21 -0.7 23% 75.11 0.0
03 18:55 W 11 16.09 Fair CLR 21.2 -0.7 22.7 20.4 23% 75.11 0.0
03 18:35 W 20 G 30 16.09 Fair CLR 21.1 -1.3 22% 75.11 0.0
03 18:15 W 26 G 31 16.09 Partly Cloudy SCT095 22.1 -1.3 21% 75.11 0.0
03 17:55 W 19 G 28 16.09 Partly Cloudy SCT095 21.6 -2 21% 75.11 0.0
03 17:35 W 15 G 37 16.09 NULL NULL 21.3 -1.5 22% 75.11 0.0
03 17:15 W 15 G 31 16.09 NULL NULL 22.5 -1 21% 75.11 0.0
03 16:55 W 19 G 41 16.09 NULL NULL 22.3 -1.8 20% 75.11 0.0
03 16:35 W 22 G 31 16.09 NULL NULL 22.5 -0.5 22% 75.11 0.0
03 16:15 W 24 G 35 16.09 Overcast BKN002 OVC075 22.6 0 22% 75.11 0.0
03 15:55 W 17 G 31 16.09 NULL NULL 21.3 0.3 25% 75.13 0.0
03 15:35 W 24 G 39 16.09 NULL NULL 21.8 -0.2 23% 75.16 0.0
03 15:15 W 19 16.09 NULL NULL 21.9 0.3 24% 75.16 0.0
03 14:55 W 20 G 33 16.09 Partly Cloudy SCT075 21.5 0.1 24% 75.16 0.0
03 14:35 SW 22 G 35 16.09 Partly Cloudy SCT070 SCT100 21.7 0 24% 75.21 0.0
03 14:15 SW 17 G 37 16.09 Mostly Cloudy SCT070 BKN100 21 -0.1 25% 75.21 0.0
03 13:55 SW 15 G 33 16.09 Partly Cloudy SCT110 21.4 0.1 24% 75.23 0.0
03 13:35 SW 22 G 37 16.09 Partly Cloudy SCT110 21.3 0.3 25% 75.26 0.0
03 13:15 SW 17 G 37 16.09 Partly Cloudy SCT120 21 1.2 27% 75.29 0.0
03 12:55 SW 24 G 35 16.09 Partly Cloudy SCT120 20.2 1.2 20.5 9.6 28% 75.31 0.0
03 12:35 SW 19 G 35 16.09 Fair CLR 19.9 1.3 29% 75.31 0.0
03 12:15 W 24 G 33 16.09 Fair CLR 20.2 1.8 30% 75.34 0.0
03 11:55 SW 24 G 43 16.09 Partly Cloudy SCT120 19.1 1 30% 75.36 0.0
03 11:35 SW 31 G 44 16.09 Fair CLR 18.6 1.3 32% 75.39 0.0
03 11:15 W 22 G 43 16.09 Partly Cloudy SCT090 18.3 1.8 33% 75.41 0.0
03 10:55 SW 22 G 33 16.09 Partly Cloudy SCT080 SCT110 17.7 2.1 35% 75.44 0.0
03 10:35 SW 17 G 28 16.09 Mostly Cloudy BKN080 BKN110 16.1 2.1 39% 75.46 0.0
03 10:15 SW 20 G 28 16.09 Overcast OVC080 15.1 1.6 40% 75.46 0.0
03 09:55 SW 15 G 28 16.09 Overcast BKN090 OVC110 14.9 1.5 40% 75.46 0.0
03 09:35 SW 13 16.09 Mostly Cloudy SCT070 BKN110 14.3 1.2 41% 75.49 0.0
03 09:15 SW 19 G 28 16.09 Partly Cloudy SCT070 13.4 0.7 42% 75.51 0.0
03 08:55 SW 13 16.09 Mostly Cloudy BKN080 BKN120 12.7 0.1 42% 75.51 0.0
03 08:35 SW 6 16.09 Partly Cloudy SCT070 SCT110 12.1 0.1 44% 75.54 0.0
03 08:15 SW 7 16.09 Mostly Cloudy BKN075 BKN100 11.2 0.3 47% 75.54 0.0
03 07:55 Calm 16.09 Overcast BKN085 OVC110 10.5 0.5 50% 75.54 0.0
03 07:35 Calm 16.09 Overcast OVC085 10.1 0.6 52% 75.57 0.0
03 07:15 Calm 16.09 Overcast BKN095 OVC110 9.8 0.8 54% 75.59 0.0
03 06:55 Calm 16.09 Overcast OVC095 9.5 1.1 10.5 8.8 56% 75.59 0.0
03 06:35 Calm 16.09 Overcast OVC095 9.1 1.8 61% 75.59 0.0
03 06:15 Calm 16.09 Overcast BKN085 OVC110 9 1.6 60% 75.59 0.0
03 05:35 Calm 16.09 Overcast SCT070 BKN095 OVC110 9.1 1.4 59% 75.59 0.0
03 05:15 Calm 16.09 Overcast SCT070 OVC080 9.1 1.7 60% 75.59 0.0
03 04:55 Calm 16.09 Overcast SCT055 OVC080 9.3 1.2 57% 75.62 0.0
03 04:35 SW 9 16.09 Rain SCT055 OVC065 9.8 0.3 52% 9 75.67 0.0
03 04:15 SW 11 16.09 Overcast BKN065 OVC085 10.5 -1.1 45% 75.67 0.0
03 03:55 SW 6 16.09 Overcast SCT065 OVC080 10.5 -1.2 44% 75.64 0.0
03 03:35 SW 9 16.09 Overcast BKN075 OVC090 10.5 -1.5 44% 75.67 0.0
03 03:15 Calm 16.09 Overcast SCT075 OVC100 10.1 -1.1 46% 75.67 0.0
03 02:55 Calm 16.09 Overcast BKN075 OVC110 9.9 -0.7 48% 75.67 0.0
03 02:35 Calm 16.09 Mostly Cloudy BKN075 BKN100 BKN120 9.7 -0.3 50% 75.67 0.0
03 02:15 Calm 16.09 Overcast OVC075 9.5 0.1 52% 75.69 0.0
03 01:55 Calm 16.09 Overcast BKN075 OVC100 9.6 0 52% 75.72 0.0
03 01:35 Calm 16.09 Overcast OVC075 9.6 0.2 52% 75.74 0.0
03 01:15 Calm 16.09 Overcast OVC075 9.5 0.5 54% 75.74 0.0
03 00:55 S 6 16.09 Overcast OVC080 9.3 0.5 15.1 8 54% 75.77 0.0
03 00:35 Calm 16.09 Overcast SCT055 BKN070 OVC090 9.1 0.8 56% 75.79 0.0
03 00:15 SW 6 16.09 Overcast SCT065 OVC080 9 0.8 57% 75.82 0.0
02 23:55 Calm 16.09 Overcast OVC090 8.6 0.5 57% 75.82 0.0
02 23:35 Calm 16.09 Partly Cloudy SCT095 8.2 0.1 57% 75.82 0.0
02 23:15 Calm 16.09 Fair CLR 8.2 0 57% 75.84 0.0
02 22:55 S 7 16.09 Fair CLR 8.5 -0.2 55% 8 75.84 0.0
02 22:35 S 7 16.09 Fair CLR 8.9 -0.7 51% 8 75.84 0.0
02 22:15 Calm 16.09 Fair CLR 9.4 -1.8 46% 75.87 0.0
02 21:55 S 6 16.09 Fair CLR 9.4 -2.7 43% 75.87 0.0
02 21:35 Calm 16.09 Fair CLR 10.5 -3.7 37% 75.9 0.0
02 21:15 Calm 16.09 Fair CLR 9.7 -2.8 42% 75.9 0.0
02 20:55 Calm 16.09 Fair CLR 11.4 -4.6 33% 75.9 0.0
02 20:35 Calm 16.09 Fair CLR 12.2 -5.9 28% 75.9 0.0
02 20:15 SW 6 16.09 Fair CLR 12.8 -6 27% 75.9 0.0
02 19:55 SW 6 16.09 Fair CLR 13.4 -6.5 25% 75.9 0.0
02 19:35 SW 9 16.09 Fair CLR 14.1 -6.9 23% 75.9 0.0
02 19:15 SW 6 16.09 Fair CLR 14.7 -7.5 21% 75.9 0.0
02 18:55 W 9 16.09 Fair CLR 15.1 -7.6 16.7 12.7 20% 75.9 0.0
02 18:35 SW 13 16.09 Fair CLR 15.7 -8.4 18% 75.92 0.0
02 18:15 W 17 G 28 16.09 Partly Cloudy SCT090 15.6 -8.3 19% 75.92 0.0
02 17:55 SW 9 16.09 Partly Cloudy SCT090 16.2 -8.3 18% 75.92 0.0
02 17:35 W 15 16.09 Fair CLR 16.1 -8.1 18% 75.95 0.0
02 17:15 W 15 16.09 Partly Cloudy SCT090 15.5 -8.6 18% 75.97 0.0
02 16:55 W 19 G 26 16.09 Mostly Cloudy BKN090 15.5 -8.5 18% 75.97 0.0
02 16:35 SW 11 G 30 16.09 Mostly Cloudy BKN090 15.8 -8.7 18% 75.97 0.0
02 16:15 W 11 16.09 Mostly Cloudy BKN090 14.9 -9.2 18% 76 0.0
02 15:55 W 15 16.09 Mostly Cloudy BKN090 15.3 -8.7 18% 76 0.0
02 15:35 NW 13 16.09 Mostly Cloudy BKN090 15.4 -9.1 18% 76.02 0.0
02 15:15 W 20 G 30 16.09 Mostly Cloudy BKN090 15.5 -8.4 19% 76.05 0.0
02 14:55 W 13 16.09 Mostly Cloudy BKN080 14.3 -8.5 20% 76.07 0.0
02 14:35 NW 13 16.09 Mostly Cloudy BKN080 14.4 -8.1 20% 76.1 0.0
02 14:15 SW 13 16.09 Mostly Cloudy BKN080 14.8 -7.6 21% 76.12 0.0
02 13:55 NW 9 16.09 Mostly Cloudy BKN080 14.4 -7.8 21% 76.15 0.0
02 13:35 W 17 16.09 Mostly Cloudy BKN080 13.5 -8.3 21% 76.17 0.0
02 13:15 NW 9 16.09 Mostly Cloudy BKN080 12.7 -8.4 22% 76.17 0.0
02 12:55 SW 11 16.09 Mostly Cloudy BKN080 14 -6.8 14 0 23% 76.2 0.0
02 12:35 SW 11 16.09 Mostly Cloudy BKN070 12.6 -7.8 24% 76.23 0.0
02 12:15 SW 11 16.09 Mostly Cloudy BKN075 11.7 -7.2 26% 76.28 0.0
02 11:55 SW 6 16.09 Partly Cloudy SCT075 11.5 -7.9 25% 76.28 0.0
02 11:35 NW 9 16.09 Fair CLR 11.4 -7 27% 76.3 0.0
02 11:15 W 9 16.09 Fair CLR 11.1 -6.4 29% 76.33 0.0
02 10:55 W 6 16.09 Fair CLR 10.3 -6.5 30% 76.35 0.0
02 10:35 SW 6 16.09 Fair CLR 9.8 -7.2 30% 76.35 0.0
02 10:15 W 6 16.09 Fair CLR 9.5 -6.1 33% 76.38 0.0
02 09:55 Calm 16.09 Fair CLR 9.5 -7.5 30% 76.38 0.0
02 09:35 Calm 16.09 Fair CLR 9.1 -6.7 32% 76.4 0.0
02 09:15 Calm 16.09 Fair CLR 8 -4.3 42% 76.4 0.0
02 08:55 Calm 16.09 Fair CLR 6.6 -5.1 43% 76.43 0.0
02 08:35 Calm 16.09 Fair CLR 6 -3.1 52% 76.43 0.0
Date Time (cdt) Wind (kph) Vis. (km) Weather Sky Cond. Air Dwpt Max. Min. Relative Humidity Wind Chill (°C) Heat Index (°C) altimeter (cm) sea level (mb) 1 hr 3 hr 6 hr
6 hour
Temperature (ºC) Pressure Precipitation (cm)